Time;durP1;ratioP1;P1;durP2;ratioP2;P2;SDS_P1;SDS_P2;PMS_P1;PMS_P2;Temp;Humidity;BMP_temperature;BMP_pressure;BME280_temperature;BME280_humidity;BME280_pressure;Samples;Min_cycle;Max_cycle;Signal;HPM_P1;HPM_P2
2022/07/20 00:00:52;;;;;;;7.95;3.78;;;25.70;1.00;;;;;;7361386;19;20019;-69
2022/07/20 00:03:22;;;;;;;8.00;3.63;;;25.90;1.00;;;;;;7361080;19;20021;-69
2022/07/20 00:05:52;;;;;;;6.40;3.38;;;25.90;1.00;;;;;;7386453;19;20010;-69
2022/07/20 00:14:03;;;;;;;6.95;3.60;;;25.90;1.00;;;;;;7360719;19;20027;-69
2022/07/20 00:16:37;;;;;;;6.13;3.67;;;25.80;1.00;;;;;;7361897;19;20015;-68
2022/07/20 00:19:07;;;;;;;8.25;4.00;;;25.80;1.00;;;;;;7363976;19;20015;-70
2022/07/20 00:21:37;;;;;;;7.10;3.78;;;25.80;1.00;;;;;;7356650;19;20024;-69
2022/07/20 00:24:08;;;;;;;5.35;3.50;;;25.80;1.00;;;;;;7361666;19;20020;-69
2022/07/20 00:26:38;;;;;;;9.32;3.50;;;25.70;1.00;;;;;;7382737;19;20090;-69
2022/07/20 00:29:10;;;;;;;12.32;3.38;;;25.70;1.00;;;;;;7363325;19;20116;-68
2022/07/20 00:31:40;;;;;;;7.07;3.70;;;25.70;1.00;;;;;;7356100;19;20094;-68
2022/07/20 00:34:10;;;;;;;8.55;3.63;;;25.70;1.00;;;;;;7363231;19;20009;-68
2022/07/20 00:36:40;;;;;;;7.88;3.67;;;25.70;1.00;;;;;;7368119;19;20077;-69
2022/07/20 00:39:10;;;;;;;10.45;3.45;;;25.60;1.00;;;;;;7369498;19;20027;-68
2022/07/20 00:41:40;;;;;;;8.30;3.42;;;25.60;1.00;;;;;;7384974;19;20014;-69
2022/07/20 00:44:13;;;;;;;5.20;3.70;;;25.50;1.00;;;;;;7369139;19;20081;-68
2022/07/20 00:46:45;;;;;;;6.53;3.25;;;25.50;1.00;;;;;;7367983;19;20013;-69
2022/07/20 00:49:16;;;;;;;6.63;3.50;;;25.50;1.00;;;;;;7370824;19;20358;-69
2022/07/20 00:51:46;;;;;;;5.93;3.58;;;25.40;1.00;;;;;;7363270;19;20013;-68
2022/07/20 00:54:20;;;;;;;5.07;3.47;;;25.40;1.00;;;;;;7370002;19;20067;-68
2022/07/20 00:56:53;;;;;;;4.72;3.33;;;25.40;1.00;;;;;;7389745;19;20039;-69
2022/07/20 00:59:25;;;;;;;3.45;3.10;;;25.30;1.00;;;;;;7369995;19;20073;-69
2022/07/20 01:01:55;;;;;;;6.13;3.33;;;25.20;1.00;;;;;;7362661;19;20082;-67
2022/07/20 01:04:26;;;;;;;8.73;3.47;;;25.10;1.00;;;;;;7369157;19;20011;-68
2022/07/20 01:06:56;;;;;;;6.38;3.60;;;25.00;1.00;;;;;;7368756;19;20016;-68
2022/07/20 01:09:27;;;;;;;5.22;3.78;;;25.00;1.00;;;;;;7369637;19;20078;-69
2022/07/20 01:11:57;;;;;;;5.78;3.42;;;24.90;1.00;;;;;;7365349;19;20025;-69
2022/07/20 01:14:29;;;;;;;7.93;3.50;;;24.70;1.00;;;;;;7390336;19;20016;-69
2022/07/20 01:16:59;;;;;;;9.13;3.67;;;24.60;1.00;;;;;;7366468;19;20074;-69
2022/07/20 01:19:29;;;;;;;8.27;3.40;;;24.50;1.00;;;;;;7368276;19;20021;-69
2022/07/20 01:22:02;;;;;;;5.28;3.90;;;24.30;1.00;;;;;;7362524;19;20011;-69
2022/07/20 01:24:32;;;;;;;10.68;4.00;;;24.30;1.00;;;;;;7367893;19;20023;-69
2022/07/20 01:27:02;;;;;;;10.80;4.00;;;24.20;1.00;;;;;;7366825;19;20015;-69
2022/07/20 01:29:32;;;;;;;6.97;3.42;;;24.20;1.00;;;;;;7390779;19;20487;-69
2022/07/20 01:32:02;;;;;;;4.85;3.58;;;24.00;1.00;;;;;;7361312;19;20377;-69
2022/07/20 01:34:32;;;;;;;10.00;3.92;;;23.90;1.00;;;;;;7367940;19;20011;-68
2022/07/20 01:37:04;;;;;;;5.40;3.92;;;23.80;1.00;;;;;;7368143;19;20017;-69
2022/07/20 01:39:34;;;;;;;8.13;3.47;;;23.80;1.00;;;;;;7369240;19;20077;-69
2022/07/20 01:42:04;;;;;;;5.40;4.15;;;23.70;1.00;;;;;;7361932;19;20557;-69
2022/07/20 01:44:33;;;;;;;6.35;4.25;;;23.70;1.00;;;;;;7388825;19;20070;-68
2022/07/20 01:47:03;;;;;;;7.63;4.10;;;23.70;1.00;;;;;;7364956;19;20021;-68
2022/07/20 01:49:33;;;;;;;7.57;3.88;;;23.60;1.00;;;;;;7367703;19;20082;-69
2022/07/20 01:52:06;;;;;;;7.07;3.50;;;23.50;1.00;;;;;;7360035;19;20367;-69
2022/07/20 01:54:36;;;;;;;6.68;3.90;;;23.50;1.00;;;;;;7367696;19;20007;-69
2022/07/20 01:57:06;;;;;;;6.45;3.83;;;23.50;1.00;;;;;;7366179;19;20014;-69
2022/07/20 01:59:36;;;;;;;8.45;3.80;;;23.60;1.00;;;;;;7389586;19;20090;-69
2022/07/20 02:02:06;;;;;;;5.80;4.00;;;23.50;1.00;;;;;;7361991;19;20022;-68
2022/07/20 02:04:37;;;;;;;6.93;3.67;;;23.60;1.00;;;;;;7367737;19;20051;-69
2022/07/20 02:07:09;;;;;;;7.93;3.90;;;23.50;1.00;;;;;;7367209;19;20006;-69
2022/07/20 02:09:39;;;;;;;6.85;4.05;;;23.50;1.00;;;;;;7368287;19;20101;-69
2022/07/20 02:12:10;;;;;;;6.57;3.97;;;23.50;1.00;;;;;;7362118;19;20416;-69
2022/07/20 02:14:40;;;;;;;4.43;3.88;;;23.40;1.00;;;;;;7387685;19;20069;-68
2022/07/20 02:17:10;;;;;;;5.95;3.67;;;23.40;1.00;;;;;;7364446;19;20017;-69
2022/07/20 02:19:40;;;;;;;5.30;3.28;;;23.40;1.00;;;;;;7367206;19;20007;-69
2022/07/20 02:22:16;;;;;;;4.95;3.50;;;23.30;1.00;;;;;;7362548;19;20006;-69
2022/07/20 02:24:46;;;;;;;8.90;3.88;;;23.30;1.00;;;;;;7367648;19;20026;-69
2022/07/20 02:27:16;;;;;;;5.78;3.70;;;23.40;1.00;;;;;;7365518;19;20116;-69
2022/07/20 02:29:46;;;;;;;4.75;3.63;;;23.40;1.00;;;;;;7386959;19;20007;-69
2022/07/20 02:32:16;;;;;;;5.82;3.67;;;23.40;1.00;;;;;;7362271;19;20515;-69
2022/07/20 02:34:46;;;;;;;6.63;4.25;;;23.30;1.00;;;;;;7367309;19;20010;-69
2022/07/20 02:37:18;;;;;;;7.30;4.22;;;23.40;1.00;;;;;;7365767;19;20106;-70
2022/07/20 02:39:48;;;;;;;8.85;4.55;;;23.30;1.00;;;;;;7365253;19;20027;-70
2022/07/20 02:42:18;;;;;;;11.02;4.05;;;23.30;1.00;;;;;;7363226;19;20044;-69
2022/07/20 02:44:48;;;;;;;6.78;3.53;;;23.30;1.00;;;;;;7388994;19;20078;-69
2022/07/20 02:47:18;;;;;;;8.98;3.70;;;23.20;1.00;;;;;;7364760;19;20025;-69
2022/07/20 02:49:48;;;;;;;8.48;4.60;;;23.10;1.00;;;;;;7364539;19;20029;-69
2022/07/20 02:52:21;;;;;;;9.52;4.05;;;23.00;1.00;;;;;;7361311;19;20007;-69
2022/07/20 02:54:50;;;;;;;7.82;4.20;;;23.00;1.00;;;;;;7366312;19;20070;-69
2022/07/20 02:57:20;;;;;;;5.88;3.92;;;22.90;1.00;;;;;;7364512;19;20442;-68
2022/07/20 02:59:50;;;;;;;8.95;4.07;;;22.80;1.00;;;;;;7382343;19;20018;-68
2022/07/20 03:02:20;;;;;;;8.48;4.60;;;22.80;1.00;;;;;;7360977;19;20014;-69
2022/07/20 03:04:50;;;;;;;7.35;4.38;;;22.70;1.00;;;;;;7366753;19;20331;-70
2022/07/20 03:07:26;;;;;;;8.43;4.40;;;22.60;1.00;;;;;;7364203;19;20086;-70
2022/07/20 03:09:56;;;;;;;5.55;4.13;;;22.60;1.00;;;;;;7361492;19;20113;-69
2022/07/20 03:12:26;;;;;;;9.13;4.72;;;22.60;1.00;;;;;;7359853;19;20108;-69
2022/07/20 03:14:56;;;;;;;7.43;4.47;;;22.50;1.00;;;;;;7382886;19;20014;-71
2022/07/20 03:17:25;;;;;;;10.27;4.32;;;22.50;1.00;;;;;;7385408;19;20093;-69
2022/07/20 03:19:55;;;;;;;6.20;4.47;;;22.50;1.00;;;;;;7361856;19;20395;-69
2022/07/20 03:22:28;;;;;;;14.60;4.90;;;22.40;1.00;;;;;;7360283;19;20077;-69
2022/07/20 03:24:58;;;;;;;8.63;5.13;;;22.40;1.00;;;;;;7366422;19;20010;-69
2022/07/20 03:27:27;;;;;;;12.18;6.28;;;22.40;1.00;;;;;;7363817;19;20010;-68
2022/07/20 03:29:57;;;;;;;7.80;5.07;;;22.40;1.00;;;;;;7362447;19;20588;-68
2022/07/20 03:32:27;;;;;;;10.38;5.05;;;22.40;1.00;;;;;;7381780;19;20462;-69
2022/07/20 03:34:57;;;;;;;9.20;5.93;;;22.40;1.00;;;;;;7363253;19;20003;-68
2022/07/20 03:37:29;;;;;;;8.20;5.38;;;22.30;1.00;;;;;;7364536;19;20358;-68
2022/07/20 03:39:59;;;;;;;8.80;6.25;;;22.30;1.00;;;;;;7361637;19;20002;-68
2022/07/20 03:42:29;;;;;;;13.70;7.05;;;22.30;1.00;;;;;;7360204;19;20038;-68
2022/07/20 03:44:59;;;;;;;9.80;6.10;;;22.20;1.00;;;;;;7364576;19;20029;-69
2022/07/20 03:47:29;;;;;;;11.75;5.65;;;22.20;1.00;;;;;;7384566;19;20010;-69
2022/07/20 03:49:59;;;;;;;10.48;6.13;;;22.10;1.00;;;;;;7360557;19;20593;-69
2022/07/20 03:52:31;;;;;;;9.70;6.03;;;22.10;1.00;;;;;;7359861;19;20077;-69
2022/07/20 03:55:01;;;;;;;11.55;5.72;;;22.10;1.00;;;;;;7364708;19;20009;-68
2022/07/20 03:57:31;;;;;;;11.07;5.68;;;22.20;1.00;;;;;;7363710;19;20046;-68
2022/07/20 04:00:01;;;;;;;14.45;6.13;;;22.40;1.00;;;;;;7360496;19;20025;-69
2022/07/20 04:02:31;;;;;;;9.73;5.93;;;22.50;1.00;;;;;;7381846;19;20018;-69
2022/07/20 04:05:01;;;;;;;9.63;5.72;;;22.60;1.00;;;;;;7363614;19;20482;-69
2022/07/20 04:07:33;;;;;;;9.68;5.70;;;22.60;1.00;;;;;;7362344;19;20257;-69
2022/07/20 04:10:03;;;;;;;11.25;5.88;;;22.80;1.00;;;;;;7361721;19;20077;-69
2022/07/20 04:12:36;;;;;;;10.30;6.13;;;23.30;1.00;;;;;;7366452;19;20589;-69
2022/07/20 04:15:06;;;;;;;7.50;5.55;;;23.60;1.00;;;;;;7370173;19;20019;-69
2022/07/20 04:17:36;;;;;;;8.63;5.40;;;24.50;1.00;;;;;;7389946;19;20335;-69
2022/07/20 04:20:07;;;;;;;14.43;6.32;;;25.10;1.00;;;;;;7367080;19;20564;-68
2022/07/20 04:22:40;;;;;;;10.98;6.43;;;25.70;1.00;;;;;;7366572;19;20031;-69
2022/07/20 04:25:10;;;;;;;10.07;6.47;;;26.10;1.00;;;;;;7371351;19;20096;-68
2022/07/20 04:27:40;;;;;;;16.83;7.18;;;26.60;1.00;;;;;;7368811;19;20074;-69
2022/07/20 04:30:12;;;;;;;16.80;7.47;;;26.20;1.00;;;;;;7367773;19;20066;-69
2022/07/20 04:32:41;;;;;;;11.63;7.25;;;25.90;1.00;;;;;;7387842;19;20104;-69
2022/07/20 04:35:12;;;;;;;19.92;7.30;;;27.30;1.00;;;;;;7368389;19;20010;-69
2022/07/20 04:37:45;;;;;;;10.48;6.95;;;27.00;1.00;;;;;;7369496;19;20084;-70
2022/07/20 04:40:15;;;;;;;11.40;6.70;;;26.80;1.00;;;;;;7367421;19;20014;-70
2022/07/20 04:42:45;;;;;;;11.65;6.80;;;27.40;1.00;;;;;;7365410;19;20125;-69
2022/07/20 04:45:15;;;;;;;10.85;6.53;;;27.70;1.00;;;;;;7370262;19;20658;-69
2022/07/20 04:47:44;;;;;;;8.90;5.72;;;27.00;1.00;;;;;;7387583;19;20085;-69
2022/07/20 04:50:14;;;;;;;13.10;5.80;;;27.70;1.00;;;;;;7366652;19;20085;-69
2022/07/20 04:52:47;;;;;;;8.75;5.95;;;28.40;1.00;;;;;;7366705;19;20540;-69
2022/07/20 04:55:17;;;;;;;8.93;5.60;;;28.40;1.00;;;;;;7368576;19;20470;-69
2022/07/20 04:57:47;;;;;;;10.65;5.60;;;28.20;1.00;;;;;;7369442;19;20086;-69
2022/07/20 05:00:17;;;;;;;8.90;5.72;;;29.00;1.00;;;;;;7365790;19;20095;-69
2022/07/20 05:02:47;;;;;;;13.07;6.63;;;29.10;1.00;;;;;;7388497;19;20077;-68
2022/07/20 05:05:17;;;;;;;8.30;6.10;;;28.80;1.00;;;;;;7368562;19;20023;-70
2022/07/20 05:07:49;;;;;;;14.10;6.70;;;28.80;1.00;;;;;;7368155;19;20013;-69
2022/07/20 05:10:19;;;;;;;8.60;6.30;;;29.80;1.00;;;;;;7367225;19;20013;-69
2022/07/20 05:12:49;;;;;;;9.05;6.07;;;30.10;1.00;;;;;;7366500;19;20014;-69
2022/07/20 05:15:19;;;;;;;9.23;6.43;;;29.10;1.00;;;;;;7368985;19;20711;-69
2022/07/20 05:17:49;;;;;;;11.50;6.00;;;29.30;1.00;;;;;;7390249;19;20042;-69
2022/07/20 05:20:19;;;;;;;10.15;5.90;;;29.30;1.00;;;;;;7364824;19;20072;-70
2022/07/20 05:22:51;;;;;;;8.68;5.60;;;29.80;1.00;;;;;;7364814;19;20021;-70
2022/07/20 05:25:21;;;;;;;12.73;5.95;;;29.50;1.00;;;;;;7369132;19;20061;-70
2022/07/20 05:27:58;;;;;;;8.38;5.82;;;30.20;1.00;;;;;;7367170;19;20023;-70
2022/07/20 05:30:28;;;;;;;10.98;6.18;;;28.80;1.00;;;;;;7365615;19;20018;-69
2022/07/20 05:32:58;;;;;;;9.25;5.53;;;28.50;1.00;;;;;;7367582;19;20018;-70
2022/07/20 05:35:27;;;;;;;8.38;5.30;;;29.70;1.00;;;;;;7386046;19;20089;-69
2022/07/20 05:38:00;;;;;;;8.98;5.43;;;29.00;1.00;;;;;;7366340;19;20086;-70
2022/07/20 05:40:34;;;;;;;9.60;4.65;;;29.50;1.00;;;;;;7365665;19;20114;-69
2022/07/20 05:43:07;;;;;;;9.48;5.07;;;29.90;1.00;;;;;;7364240;19;20026;-69
2022/07/20 05:45:38;;;;;;;8.95;5.72;;;29.90;1.00;;;;;;7364764;19;20018;-69
2022/07/20 05:48:16;;;;;;;8.88;5.22;;;29.40;1.00;;;;;;7365412;19;20010;-69
2022/07/20 05:50:46;;;;;;;8.02;5.38;;;29.60;1.00;;;;;;7386508;19;20037;-69
2022/07/20 05:53:19;;;;;;;8.02;5.22;;;29.90;1.00;;;;;;7365348;19;20107;-69
2022/07/20 05:55:49;;;;;;;6.43;4.65;;;29.90;1.00;;;;;;7363668;19;20013;-69
2022/07/20 05:58:19;;;;;;;5.53;4.22;;;29.70;1.00;;;;;;7365352;19;20486;-69
2022/07/20 06:00:49;;;;;;;9.20;4.78;;;29.50;1.00;;;;;;7363319;19;20093;-69
2022/07/20 06:03:18;;;;;;;9.73;5.05;;;29.60;1.00;;;;;;7365838;19;20491;-69
2022/07/20 06:05:48;;;;;;;11.77;5.18;;;29.20;1.00;;;;;;7385709;19;20086;-69
2022/07/20 06:08:21;;;;;;;5.45;4.13;;;27.70;1.00;;;;;;7365237;19;20053;-69
2022/07/20 06:10:51;;;;;;;11.70;4.80;;;27.00;1.00;;;;;;7363077;19;20106;-70
2022/07/20 06:13:21;;;;;;;11.18;4.60;;;27.00;1.00;;;;;;7365314;19;20006;-70
2022/07/20 06:15:50;;;;;;;9.80;4.93;;;27.40;1.00;;;;;;7363392;19;20375;-69
2022/07/20 06:18:20;;;;;;;7.10;4.90;;;29.40;1.00;;;;;;7365668;19;20037;-69
2022/07/20 06:20:51;;;;;;;9.98;4.82;;;29.50;1.00;;;;;;7386930;19;20366;-69
2022/07/20 06:23:24;;;;;;;13.13;5.18;;;29.30;1.00;;;;;;7364987;19;20526;-69
2022/07/20 06:25:54;;;;;;;12.93;4.72;;;29.30;1.00;;;;;;7363221;19;20352;-69
2022/07/20 06:28:23;;;;;;;10.23;4.75;;;29.60;1.00;;;;;;7365809;19;20007;-69
2022/07/20 06:30:53;;;;;;;11.95;4.43;;;29.70;1.00;;;;;;7364454;19;20119;-70
2022/07/20 06:33:23;;;;;;;13.52;4.93;;;29.30;1.00;;;;;;7364017;19;20007;-70
2022/07/20 06:35:53;;;;;;;9.95;4.38;;;30.20;1.00;;;;;;7385725;19;20019;-69
2022/07/20 06:38:26;;;;;;;8.55;4.47;;;29.70;1.00;;;;;;7364602;19;20085;-69
2022/07/20 06:40:56;;;;;;;7.93;4.93;;;29.40;1.00;;;;;;7362079;19;20015;-69
2022/07/20 06:43:26;;;;;;;12.13;4.50;;;29.60;1.00;;;;;;7364486;19;20014;-69
2022/07/20 06:45:56;;;;;;;7.57;4.78;;;30.20;1.00;;;;;;7363336;19;20014;-68
2022/07/20 06:48:26;;;;;;;9.27;4.90;;;30.20;1.00;;;;;;7364968;19;20013;-70
2022/07/20 06:50:57;;;;;;;10.40;4.97;;;29.60;1.00;;;;;;7385174;19;20022;-70
2022/07/20 06:53:30;;;;;;;11.95;4.72;;;28.50;1.00;;;;;;7365121;19;20020;-70
2022/07/20 06:56:00;;;;;;;6.55;4.30;;;28.00;1.00;;;;;;7360508;19;20011;-70
2022/07/20 06:58:30;;;;;;;10.55;4.78;;;28.20;1.00;;;;;;7363328;19;20557;-69
2022/07/20 07:01:00;;;;;;;10.32;4.80;;;28.10;1.00;;;;;;7361869;19;20809;-70
2022/07/20 07:03:30;;;;;;;6.30;4.55;;;28.10;1.00;;;;;;7366708;19;20018;-69
2022/07/20 07:06:05;;;;;;;10.18;4.28;;;28.20;1.00;;;;;;7363826;19;20034;-69
2022/07/20 07:08:38;;;;;;;11.85;4.72;;;28.30;1.00;;;;;;7385539;19;20504;-68
2022/07/20 07:11:07;;;;;;;10.18;4.68;;;28.30;1.00;;;;;;7358135;19;20392;-70
2022/07/20 07:13:37;;;;;;;11.68;5.00;;;28.40;1.00;;;;;;7365602;19;20025;-70
2022/07/20 07:16:08;;;;;;;8.40;4.60;;;28.50;1.00;;;;;;7363751;19;20346;-70
2022/07/20 07:18:38;;;;;;;11.77;4.63;;;28.30;1.00;;;;;;7363477;19;20010;-70
2022/07/20 07:21:08;;;;;;;9.40;4.53;;;28.20;1.00;;;;;;7359954;19;20138;-70
2022/07/20 07:23:40;;;;;;;9.30;5.25;;;28.50;1.00;;;;;;7386621;19;20077;-70
2022/07/20 07:26:10;;;;;;;12.90;4.85;;;28.50;1.00;;;;;;7362664;19;20086;-70
2022/07/20 07:28:41;;;;;;;9.95;4.60;;;28.80;1.00;;;;;;7364031;19;20031;-70
2022/07/20 07:31:12;;;;;;;9.48;5.03;;;28.90;1.00;;;;;;7357683;19;20027;-70
2022/07/20 07:33:42;;;;;;;9.52;5.00;;;29.30;1.00;;;;;;7362018;19;20642;-68
2022/07/20 07:36:12;;;;;;;6.93;5.00;;;29.40;1.00;;;;;;7363346;19;20074;-70
2022/07/20 07:38:45;;;;;;;9.32;5.40;;;29.40;1.00;;;;;;7383587;19;20108;-70
2022/07/20 07:41:15;;;;;;;9.32;4.78;;;29.60;1.00;;;;;;7357292;19;20025;-70
2022/07/20 07:43:45;;;;;;;10.35;5.00;;;29.80;1.00;;;;;;7361877;19;20015;-70
2022/07/20 07:46:17;;;;;;;7.28;4.93;;;30.10;1.00;;;;;;7360122;19;20126;-70
2022/07/20 07:48:47;;;;;;;8.20;5.35;;;29.80;1.00;;;;;;7361275;19;20052;-71
2022/07/20 07:51:18;;;;;;;12.63;5.35;;;30.00;1.00;;;;;;7356940;19;20014;-71
2022/07/20 07:53:51;;;;;;;10.45;4.78;;;30.20;1.00;;;;;;7381670;19;20044;-70
2022/07/20 07:56:21;;;;;;;8.50;5.05;;;30.10;1.00;;;;;;7360202;19;20018;-70
2022/07/20 07:58:52;;;;;;;5.68;4.93;;;30.10;1.00;;;;;;7361613;19;20021;-70
2022/07/20 08:01:42;;;;;;;7.00;4.55;;;30.10;1.00;;;;;;7358462;19;20006;-69
2022/07/20 08:04:12;;;;;;;9.23;5.53;;;30.20;1.00;;;;;;7361237;19;20010;-70
2022/07/20 08:06:42;;;;;;;9.30;5.22;;;30.40;1.00;;;;;;7363189;19;20101;-71
2022/07/20 08:09:14;;;;;;;7.43;5.20;;;30.50;1.00;;;;;;7362652;19;20119;-69
2022/07/20 08:11:44;;;;;;;10.48;5.95;;;30.30;1.00;;;;;;7380840;19;20028;-70
2022/07/20 08:14:14;;;;;;;9.32;5.47;;;30.00;1.00;;;;;;7362231;19;20015;-69
2022/07/20 08:16:44;;;;;;;7.30;5.00;;;30.30;1.00;;;;;;7361814;19;20013;-69
2022/07/20 08:19:14;;;;;;;9.23;5.53;;;30.50;1.00;;;;;;7362001;19;20082;-69
2022/07/20 08:21:44;;;;;;;9.77;5.18;;;30.50;1.00;;;;;;7359289;19;20020;-70
2022/07/20 08:24:16;;;;;;;7.82;5.20;;;30.30;1.00;;;;;;7361528;19;20023;-69
2022/07/20 08:26:46;;;;;;;11.57;5.22;;;30.60;1.00;;;;;;7381874;19;20082;-69
2022/07/20 08:29:16;;;;;;;7.40;4.82;;;30.80;1.00;;;;;;7360170;19;20355;-69
2022/07/20 08:31:46;;;;;;;7.57;5.10;;;30.90;1.00;;;;;;7355527;19;20011;-70
2022/07/20 08:34:16;;;;;;;14.02;6.10;;;31.00;1.00;;;;;;7355396;19;20007;-70
2022/07/20 08:36:51;;;;;;;9.95;5.65;;;31.00;1.00;;;;;;7360921;19;20017;-70
2022/07/20 08:39:25;;;;;;;15.95;6.55;;;31.10;1.00;;;;;;7361271;19;20537;-69
2022/07/20 08:41:55;;;;;;;8.48;5.63;;;31.40;1.00;;;;;;7379468;19;20026;-69
2022/07/20 08:44:26;;;;;;;12.30;6.65;;;31.30;1.00;;;;;;7358724;19;20500;-70
2022/07/20 08:46:58;;;;;;;12.20;5.80;;;31.20;1.00;;;;;;7360493;19;20092;-70
2022/07/20 08:49:30;;;;;;;13.77;5.90;;;31.50;1.00;;;;;;7359449;19;20015;-70
2022/07/20 08:52:00;;;;;;;11.32;6.18;;;31.40;1.00;;;;;;7355190;19;20015;-69
2022/07/20 08:54:34;;;;;;;7.28;5.28;;;31.60;1.00;;;;;;7358875;19;20085;-70
2022/07/20 08:57:10;;;;;;;8.63;5.63;;;31.60;1.00;;;;;;7360362;19;20099;-70
2022/07/20 08:59:40;;;;;;;13.85;5.97;;;31.60;1.00;;;;;;7389225;19;20024;-69
2022/07/20 09:02:13;;;;;;;8.73;5.47;;;31.30;1.00;;;;;;7363871;19;20015;-70
2022/07/20 09:04:54;;;;;;;10.13;5.88;;;31.50;1.00;;;;;;7364712;19;20101;-70
2022/07/20 09:07:40;;;;;;;11.02;5.43;;;31.60;1.00;;;;;;7365742;19;20011;-70
2022/07/20 09:10:15;;;;;;;8.48;5.43;;;32.00;1.00;;;;;;7362463;19;21172;-69
2022/07/20 09:12:53;;;;;;;8.82;5.30;;;32.10;1.00;;;;;;7364973;19;20014;-69
2022/07/20 09:15:33;;;;;;;13.23;5.35;;;32.30;1.00;;;;;;7366042;19;20502;-70
2022/07/20 09:18:15;;;;;;;12.52;5.25;;;32.40;1.00;;;;;;7364619;19;20042;-68
2022/07/20 09:20:47;;;;;;;11.80;5.95;;;32.40;1.00;;;;;;7387171;19;20029;-70
2022/07/20 09:23:18;;;;;;;12.57;5.38;;;32.30;1.00;;;;;;7365222;19;20011;-70
2022/07/20 09:26:00;;;;;;;9.60;5.57;;;32.40;1.00;;;;;;7363723;19;20105;-69
2022/07/20 09:28:38;;;;;;;7.15;4.22;;;32.40;1.00;;;;;;7366097;19;20014;-70
2022/07/20 09:31:13;;;;;;;10.25;5.65;;;32.50;1.00;;;;;;7361936;19;20010;-69
2022/07/20 09:34:03;;;;;;;7.28;5.20;;;32.40;1.00;;;;;;7366572;19;20536;-70
2022/07/20 09:36:34;;;;;;;9.48;4.47;;;32.80;1.00;;;;;;7365101;19;20534;-69
2022/07/20 09:39:12;;;;;;;6.18;4.57;;;32.60;1.00;;;;;;7366025;19;20031;-70
2022/07/20 09:41:46;;;;;;;7.72;4.70;;;32.60;1.00;;;;;;7382714;19;20011;-70
2022/07/20 09:44:24;;;;;;;7.13;4.80;;;32.70;1.00;;;;;;7362410;19;20098;-69
2022/07/20 09:46:54;;;;;;;11.18;4.90;;;32.50;1.00;;;;;;7362378;19;20085;-69
2022/07/20 09:49:33;;;;;;;12.50;5.43;;;33.00;1.00;;;;;;7365343;19;20796;-69
2022/07/20 09:52:06;;;;;;;11.18;5.80;;;33.00;1.00;;;;;;7360435;19;20038;-69
2022/07/20 09:54:56;;;;;;;8.20;5.57;;;32.90;1.00;;;;;;7364111;19;20013;-69
2022/07/20 09:57:28;;;;;;;7.53;5.05;;;32.50;1.00;;;;;;7363791;19;20086;-69
2022/07/20 09:59:59;;;;;;;6.90;4.95;;;32.60;1.00;;;;;;7379736;19;20058;-70
2022/07/20 10:02:30;;;;;;;8.13;5.00;;;32.90;1.00;;;;;;7385307;19;20092;-70
2022/07/20 10:05:02;;;;;;;10.70;5.63;;;32.80;1.00;;;;;;7363890;19;20044;-69
2022/07/20 10:07:32;;;;;;;7.60;5.45;;;32.80;1.00;;;;;;7366409;19;20070;-70
2022/07/20 10:10:03;;;;;;;9.63;4.93;;;33.30;1.00;;;;;;7362925;19;20098;-70
2022/07/20 10:12:36;;;;;;;7.63;5.18;;;32.90;1.00;;;;;;7365248;19;20014;-70
2022/07/20 10:15:09;;;;;;;9.43;5.23;;;32.90;1.00;;;;;;7362226;19;20082;-70
2022/07/20 10:17:40;;;;;;;7.28;5.20;;;33.50;1.00;;;;;;7384828;19;20022;-69
2022/07/20 10:20:31;;;;;;;6.97;4.70;;;33.20;1.00;;;;;;7359512;19;20017;-69
2022/07/20 10:23:29;;;;;;;10.30;4.70;;;33.20;1.00;;;;;;7362075;19;20391;-69
2022/07/20 10:26:00;;;;;;;6.88;4.70;;;33.30;1.00;;;;;;7362479;19;20062;-70
2022/07/20 10:28:35;;;;;;;6.70;4.78;;;33.40;1.00;;;;;;7366439;19;20078;-72
2022/07/20 10:31:16;;;;;;;8.20;4.95;;;33.30;1.00;;;;;;7361617;19;20551;-70
2022/07/20 10:33:46;;;;;;;6.47;4.70;;;33.50;1.00;;;;;;7363773;19;20533;-70
2022/07/20 10:39:19;;;;;;;6.88;4.63;;;32.90;1.00;;;;;;7363290;19;20029;-70
2022/07/20 10:42:28;;;;;;;9.88;5.10;;;33.30;1.00;;;;;;7381333;19;20013;-70
2022/07/20 10:45:37;;;;;;;6.93;4.95;;;33.20;1.00;;;;;;7260145;19;2004463;-71
2022/07/20 10:48:22;;;;;;;10.00;4.90;;;33.50;1.00;;;;;;7367241;19;20474;-70
2022/07/20 10:50:55;;;;;;;6.22;5.15;;;33.60;1.00;;;;;;7384996;19;20090;-69
2022/07/20 10:53:38;;;;;;;6.32;4.93;;;33.00;1.00;;;;;;7364160;19;20462;-70
2022/07/20 10:56:12;;;;;;;5.78;5.00;;;33.20;1.00;;;;;;7363894;19;20052;-70
2022/07/20 10:58:45;;;;;;;9.63;5.47;;;33.80;1.00;;;;;;7363074;19;20010;-71
2022/07/20 11:01:18;;;;;;;7.55;4.85;;;34.00;1.00;;;;;;7360215;19;20082;-71
2022/07/20 11:03:50;;;;;;;6.73;5.30;;;33.90;1.00;;;;;;7364769;19;20014;-71
2022/07/20 11:06:23;;;;;;;6.07;4.82;;;34.00;1.00;;;;;;7364463;19;20037;-69
2022/07/20 11:08:55;;;;;;;15.80;5.67;;;33.80;1.00;;;;;;7385893;19;20011;-71
2022/07/20 11:11:28;;;;;;;5.72;5.05;;;34.00;1.00;;;;;;7360730;19;20011;-69
2022/07/20 11:13:58;;;;;;;9.88;5.13;;;33.70;1.00;;;;;;7362440;19;20482;-71
2022/07/20 11:16:31;;;;;;;6.90;5.00;;;33.60;1.00;;;;;;7364484;19;20021;-73
2022/07/20 11:19:03;;;;;;;7.47;4.90;;;33.60;1.00;;;;;;7361498;19;20084;-70
2022/07/20 11:21:35;;;;;;;6.60;5.00;;;33.50;1.00;;;;;;7357724;19;20101;-71
2022/07/20 11:24:22;;;;;;;11.90;5.82;;;34.20;1.00;;;;;;7361450;19;20018;-71
2022/07/20 11:26:52;;;;;;;10.52;5.68;;;33.70;1.00;;;;;;7384289;19;20470;-71
2022/07/20 11:29:24;;;;;;;7.93;5.63;;;33.70;1.00;;;;;;7361834;19;20030;-71
2022/07/20 11:31:57;;;;;;;8.90;5.45;;;33.80;1.00;;;;;;7357026;19;20014;-71
2022/07/20 11:34:27;;;;;;;8.95;5.43;;;34.30;1.00;;;;;;7359422;19;20023;-71
2022/07/20 11:37:02;;;;;;;6.72;4.82;;;34.20;1.00;;;;;;7363162;19;20011;-70
2022/07/20 11:39:32;;;;;;;13.77;5.45;;;34.40;1.00;;;;;;7361492;19;20014;-71
2022/07/20 11:42:02;;;;;;;19.05;5.93;;;34.70;1.00;;;;;;7359228;19;20035;-70
2022/07/20 11:44:31;;;;;;;10.77;5.30;;;34.50;1.00;;;;;;7383203;19;20073;-70
2022/07/20 11:47:04;;;;;;;9.20;5.10;;;34.60;1.00;;;;;;7360511;19;20082;-70
2022/07/20 11:49:34;;;;;;;8.13;5.40;;;34.20;1.00;;;;;;7360655;19;20073;-69
2022/07/20 11:52:08;;;;;;;8.07;5.50;;;34.40;1.00;;;;;;7358455;19;20110;-70
2022/07/20 11:54:40;;;;;;;12.52;6.22;;;34.40;1.00;;;;;;7362130;19;20050;-70
2022/07/20 11:57:10;;;;;;;8.70;5.67;;;34.60;1.00;;;;;;7360511;19;20592;-70
2022/07/20 11:59:47;;;;;;;11.18;5.50;;;34.50;1.00;;;;;;7381069;19;20470;-70
2022/07/20 12:02:28;;;;;;;7.55;5.55;;;34.40;1.00;;;;;;7355857;19;20011;-70
2022/07/20 12:05:02;;;;;;;8.85;6.22;;;34.20;1.00;;;;;;7356593;19;20018;-71
2022/07/20 12:10:18;;;;;;;8.40;5.70;;;34.40;1.00;;;;;;7358792;19;20082;-71
2022/07/20 12:13:02;;;;;;;9.65;5.88;;;34.20;1.00;;;;;;7360725;19;20516;-71
2022/07/20 12:15:32;;;;;;;6.35;5.57;;;34.40;1.00;;;;;;7361422;19;20081;-70
2022/07/20 12:18:05;;;;;;;7.95;5.78;;;34.70;1.00;;;;;;7362969;19;20023;-70
2022/07/20 12:20:35;;;;;;;7.15;6.00;;;34.40;1.00;;;;;;7382182;19;20015;-70
2022/07/20 12:23:05;;;;;;;9.18;6.32;;;34.50;1.00;;;;;;7359501;19;20007;-70
2022/07/20 12:25:39;;;;;;;8.18;5.90;;;34.70;1.00;;;;;;7360915;19;20007;-71
2022/07/20 12:28:09;;;;;;;9.93;6.30;;;34.80;1.00;;;;;;7362946;19;20017;-72
2022/07/20 12:31:12;;;;;;;8.52;6.53;;;34.70;1.00;;;;;;7359817;19;20015;-72
2022/07/20 12:34:02;;;;;;;9.50;7.60;;;34.70;1.00;;;;;;7369598;19;20474;-71
2022/07/20 12:36:37;;;;;;;13.95;8.30;;;34.70;1.00;;;;;;7368445;19;20010;-70
2022/07/20 12:39:09;;;;;;;14.18;8.10;;;34.90;1.00;;;;;;7368275;19;20440;-71
2022/07/20 12:41:40;;;;;;;9.73;7.47;;;35.00;1.00;;;;;;7384511;19;20675;-71
2022/07/20 12:44:32;;;;;;;10.88;9.07;;;35.00;1.00;;;;;;7364570;19;20014;-71
2022/07/20 12:47:02;;;;;;;12.98;8.98;;;34.80;1.00;;;;;;7364428;19;20014;-71
2022/07/20 12:49:35;;;;;;;10.60;8.90;;;35.00;1.00;;;;;;7366980;19;20579;-72
2022/07/20 12:52:05;;;;;;;11.50;9.35;;;35.50;1.00;;;;;;7361714;19;20202;-70
2022/07/20 12:54:35;;;;;;;13.07;9.25;;;34.70;1.00;;;;;;7365404;19;20048;-71
2022/07/20 12:57:25;;;;;;;13.30;9.48;;;34.40;1.00;;;;;;7366872;19;20018;-71
2022/07/20 12:59:55;;;;;;;10.68;8.57;;;34.20;1.00;;;;;;7384490;19;20011;-71
2022/07/20 13:02:25;;;;;;;10.98;8.45;;;34.40;1.00;;;;;;7366846;19;20007;-71
2022/07/20 13:04:57;;;;;;;12.90;8.82;;;33.80;1.00;;;;;;7365794;19;20488;-71
2022/07/20 13:07:27;;;;;;;9.93;8.85;;;33.50;1.00;;;;;;7366496;19;20007;-71
2022/07/20 13:09:57;;;;;;;12.38;9.80;;;33.40;1.00;;;;;;7363709;19;20038;-73
2022/07/20 13:12:27;;;;;;;10.25;9.25;;;33.30;1.00;;;;;;7365335;19;20014;-72
2022/07/20 13:14:57;;;;;;;20.13;11.10;;;33.10;1.00;;;;;;7386574;19;20045;-71
2022/07/20 13:17:47;;;;;;;17.20;12.00;;;33.00;1.00;;;;;;7368300;19;20015;-70
2022/07/20 13:20:19;;;;;;;20.88;11.85;;;32.40;1.00;;;;;;7361423;19;20019;-71
2022/07/20 13:22:49;;;;;;;23.40;14.40;;;31.90;1.00;;;;;;7365199;19;20028;-73
2022/07/20 13:25:19;;;;;;;14.43;12.20;;;32.00;1.00;;;;;;7366370;19;20629;-73
2022/07/20 13:27:49;;;;;;;14.32;11.25;;;32.20;1.00;;;;;;7366843;19;20086;-71
2022/07/20 13:30:21;;;;;;;16.67;11.50;;;32.00;1.00;;;;;;7361950;19;20051;-71